createdAt,value
2018-08-24T00:00:52.944Z,92.32
2018-08-24T00:01:52.940Z,93.29
2018-08-24T00:02:52.943Z,93.91
2018-08-24T00:03:52.933Z,93.72
2018-08-24T00:04:52.935Z,94.87
2018-08-24T00:05:52.936Z,94.87
2018-08-24T00:06:56.678Z,95.17
2018-08-24T00:07:52.924Z,95.84
2018-08-24T00:08:52.936Z,95.94
2018-08-24T00:09:52.925Z,95.84
2018-08-24T00:10:52.919Z,95.94
2018-08-24T00:11:55.652Z,95.84
2018-08-24T00:12:55.655Z,95.50
2018-08-24T00:13:52.911Z,95.98
2018-08-24T00:14:52.907Z,96.08
2018-08-24T00:15:52.907Z,95.50
2018-08-24T00:16:52.906Z,95.50
2018-08-24T00:17:52.899Z,95.50
2018-08-24T00:18:52.893Z,95.60
2018-08-24T00:19:52.895Z,94.83
2018-08-24T00:20:52.884Z,94.35
2018-08-24T00:21:52.883Z,94.92
2018-08-24T00:22:52.883Z,93.29
2018-08-24T00:23:52.875Z,94.92
2018-08-24T00:24:52.878Z,93.77
2018-08-24T00:25:52.876Z,94.15
2018-08-24T00:26:52.873Z,93.68
2018-08-24T00:27:52.870Z,93.58
2018-08-24T00:28:52.864Z,92.91
2018-08-24T00:29:52.861Z,93.10
2018-08-24T00:30:52.861Z,92.81
2018-08-24T00:31:52.936Z,92.23
2018-08-24T00:32:52.852Z,92.04
2018-08-24T00:33:52.848Z,91.27
2018-08-24T00:34:52.854Z,91.27
2018-08-24T00:35:52.853Z,91.36
2018-08-24T00:36:52.844Z,91.27
2018-08-24T00:37:52.837Z,91.22
2018-08-24T00:38:52.834Z,90.65
2018-08-24T00:39:52.837Z,91.90
2018-08-24T00:40:52.837Z,90.75
2018-08-24T00:41:52.828Z,90.75
2018-08-24T00:42:52.824Z,91.03
2018-08-24T00:43:52.821Z,90.45
2018-08-24T00:44:52.818Z,90.94
2018-08-24T00:45:52.819Z,90.94
2018-08-24T00:46:52.812Z,90.94
2018-08-24T00:47:52.809Z,90.94
2018-08-24T00:48:52.818Z,90.94
2018-08-24T00:49:52.805Z,90.75
2018-08-24T00:50:52.801Z,90.84
2018-08-24T00:51:52.803Z,90.94
2018-08-24T00:52:52.799Z,90.36
2018-08-24T00:53:52.794Z,91.03
2018-08-24T00:54:54.229Z,90.45
2018-08-24T00:55:52.792Z,90.84
2018-08-24T00:56:52.784Z,90.65
2018-08-24T00:57:52.794Z,90.94
2018-08-24T00:58:52.781Z,90.65
2018-08-24T00:59:52.789Z,90.45
2018-08-24T01:00:52.774Z,90.36
2018-08-24T01:01:52.775Z,90.75
2018-08-24T01:02:52.767Z,90.65
2018-08-24T01:03:52.762Z,90.65
2018-08-24T01:04:52.764Z,90.94
2018-08-24T01:05:52.764Z,90.84
2018-08-24T01:06:52.761Z,90.84
2018-08-24T01:07:52.772Z,90.65
2018-08-24T01:08:52.752Z,90.75
2018-08-24T01:09:52.751Z,90.36
2018-08-24T01:10:52.750Z,90.65
2018-08-24T01:11:52.747Z,90.65
2018-08-24T01:12:52.743Z,90.65
2018-08-24T01:13:52.735Z,90.84
2018-08-24T01:14:52.734Z,90.45
2018-08-24T01:15:52.729Z,90.36
2018-08-24T01:16:52.727Z,90.65
2018-08-24T01:17:52.744Z,90.84
2018-08-24T01:18:52.724Z,90.36
2018-08-24T01:19:52.724Z,90.07
2018-08-24T01:20:52.721Z,90.17
2018-08-24T01:21:52.716Z,89.69
2018-08-24T01:22:52.716Z,89.21
2018-08-24T01:23:52.710Z,89.59
2018-08-24T01:24:52.709Z,89.30
2018-08-24T01:25:52.702Z,89.78
2018-08-24T01:26:52.698Z,89.98
2018-08-24T01:27:52.694Z,89.40
2018-08-24T01:28:52.702Z,88.73
2018-08-24T01:29:52.692Z,88.15
2018-08-24T01:30:52.686Z,87.67
2018-08-24T01:31:52.690Z,87.76
2018-08-24T01:32:52.686Z,88.24
2018-08-24T01:33:52.688Z,87.57
2018-08-24T01:34:52.675Z,87.48
2018-08-24T01:35:52.675Z,87.48
2018-08-24T01:36:52.689Z,87.43
2018-08-24T01:37:52.668Z,87.92
2018-08-24T01:38:52.676Z,88.20
2018-08-24T01:39:52.660Z,87.34
2018-08-24T01:40:52.664Z,88.01
2018-08-24T01:41:52.661Z,88.10
2018-08-24T01:42:52.652Z,88.68
2018-08-24T01:43:52.654Z,88.87
2018-08-24T01:44:52.650Z,88.30
2018-08-24T01:45:52.642Z,88.87
2018-08-24T01:46:52.639Z,88.39
2018-08-24T01:47:52.649Z,88.78
2018-08-24T01:48:52.632Z,89.54
2018-08-24T01:49:52.634Z,88.68
2018-08-24T01:50:52.628Z,89.16
2018-08-24T01:51:52.626Z,89.16
2018-08-24T01:52:52.636Z,88.78
2018-08-24T01:53:52.624Z,88.78
2018-08-24T01:54:52.622Z,88.49
2018-08-24T01:55:52.619Z,88.20
2018-08-24T01:56:52.606Z,87.82
2018-08-24T01:57:52.608Z,88.20
2018-08-24T01:58:52.625Z,87.62
2018-08-24T01:59:52.607Z,88.16
2018-08-24T02:00:52.614Z,87.53
2018-08-24T02:01:52.594Z,88.73
2018-08-24T02:02:52.601Z,88.73
2018-08-24T02:03:52.591Z,88.35
2018-08-24T02:04:52.587Z,88.35
2018-08-24T02:05:52.593Z,89.02
2018-08-24T02:06:52.575Z,89.69
2018-08-24T02:07:52.577Z,89.69
2018-08-24T02:08:52.579Z,89.31
2018-08-24T02:09:52.570Z,89.69
2018-08-24T02:10:52.576Z,89.89
2018-08-24T02:11:52.570Z,89.31
2018-08-24T02:12:52.564Z,89.89
2018-08-24T02:13:52.573Z,89.50
2018-08-24T02:14:52.556Z,89.69
2018-08-24T02:15:52.551Z,90.03
2018-08-24T02:16:52.550Z,89.69
2018-08-24T02:17:52.543Z,89.84
2018-08-24T02:18:52.542Z,90.56
2018-08-24T02:19:52.540Z,90.27
2018-08-24T02:20:52.537Z,89.89
2018-08-24T02:21:52.537Z,90.27
2018-08-24T02:22:52.530Z,89.84
2018-08-24T02:23:52.531Z,89.84
2018-08-24T02:24:52.525Z,89.65
2018-08-24T02:25:52.519Z,89.75
2018-08-24T02:26:52.519Z,90.32
2018-08-24T02:27:52.510Z,89.55
2018-08-24T02:28:52.512Z,89.75
2018-08-24T02:29:52.509Z,89.65
2018-08-24T02:30:52.504Z,89.17
2018-08-24T02:31:52.502Z,89.55
2018-08-24T02:32:52.497Z,89.46
2018-08-24T02:33:52.494Z,89.36
2018-08-24T02:34:52.492Z,89.46
2018-08-24T02:35:52.487Z,89.65
2018-08-24T02:36:52.487Z,89.51
2018-08-24T02:37:52.481Z,89.17
2018-08-24T02:38:52.475Z,89.75
2018-08-24T02:39:52.475Z,89.41
2018-08-24T02:40:52.471Z,89.51
2018-08-24T02:41:52.466Z,89.12
2018-08-24T02:42:52.467Z,89.03
2018-08-24T02:43:52.462Z,89.51
2018-08-24T02:44:52.504Z,89.12
2018-08-24T02:45:52.453Z,90.08
2018-08-24T02:46:52.453Z,90.08
2018-08-24T02:47:52.442Z,89.12
2018-08-24T02:48:52.447Z,89.89
2018-08-24T02:49:52.438Z,89.99
2018-08-24T02:50:52.436Z,90.08
2018-08-24T02:51:52.436Z,89.99
2018-08-24T02:52:52.430Z,89.89
2018-08-24T02:53:52.429Z,89.41
2018-08-24T02:54:52.431Z,90.08
2018-08-24T02:55:52.421Z,89.99
2018-08-24T02:56:52.416Z,90.28
2018-08-24T02:57:52.413Z,89.99
2018-08-24T02:58:52.411Z,89.89
2018-08-24T02:59:52.407Z,89.79
2018-08-24T03:00:52.404Z,90.56
2018-08-24T03:01:52.410Z,90.56
2018-08-24T03:02:52.392Z,90.33
2018-08-24T03:03:52.395Z,90.18
2018-08-24T03:04:52.386Z,90.18
2018-08-24T03:05:52.384Z,91.38
2018-08-24T03:06:52.382Z,91.00
2018-08-24T03:07:52.391Z,91.00
2018-08-24T03:08:52.374Z,91.57
2018-08-24T03:09:52.373Z,91.09
2018-08-24T03:10:52.368Z,90.71
2018-08-24T03:11:52.366Z,91.48
2018-08-24T03:12:52.363Z,91.38
2018-08-24T03:13:52.357Z,91.19
2018-08-24T03:14:52.354Z,91.67
2018-08-24T03:15:52.351Z,91.48
2018-08-24T03:16:52.346Z,91.19
2018-08-24T03:17:52.343Z,91.19
2018-08-24T03:18:52.337Z,91.38
2018-08-24T03:19:52.339Z,91.57
2018-08-24T03:20:52.329Z,91.09
2018-08-24T03:21:52.327Z,91.57
2018-08-24T03:22:52.323Z,91.38
2018-08-24T03:23:52.319Z,90.90
2018-08-24T03:24:52.317Z,91.09
2018-08-24T03:25:52.311Z,91.09
2018-08-24T03:26:52.315Z,91.48
2018-08-24T03:27:52.307Z,91.57
2018-08-24T03:28:52.302Z,91.19
2018-08-24T03:29:52.302Z,91.19
2018-08-24T03:30:52.297Z,91.00
2018-08-24T03:31:52.299Z,91.28
2018-08-24T03:32:52.289Z,91.14
2018-08-24T03:33:52.283Z,90.71
2018-08-24T03:34:52.284Z,90.81
2018-08-24T03:35:52.278Z,90.33
2018-08-24T03:36:52.273Z,91.24
2018-08-24T03:37:52.266Z,90.52
2018-08-24T03:38:52.267Z,91.09
2018-08-24T03:39:52.264Z,91.19
2018-08-24T03:40:52.261Z,91.19
2018-08-24T03:41:52.254Z,91.19
2018-08-24T03:42:52.251Z,90.61
2018-08-24T03:43:52.250Z,90.52
2018-08-24T03:44:52.247Z,91.19
2018-08-24T03:45:52.253Z,90.81
2018-08-24T03:46:52.264Z,90.61
2018-08-24T03:47:52.236Z,90.42
2018-08-24T03:48:52.256Z,91.00
2018-08-24T03:49:52.224Z,90.71
2018-08-24T03:50:52.227Z,90.90
2018-08-24T03:51:52.219Z,91.00
2018-08-24T03:52:52.244Z,90.42
2018-08-24T03:53:52.212Z,90.42
2018-08-24T03:54:52.209Z,90.23
2018-08-24T03:55:52.205Z,90.52
2018-08-24T03:56:52.203Z,90.81
2018-08-24T03:57:52.197Z,90.61
2018-08-24T03:58:52.193Z,90.42
2018-08-24T03:59:52.192Z,89.94
2018-08-24T04:00:52.189Z,90.52
2018-08-24T04:01:52.185Z,90.04
2018-08-24T04:02:52.180Z,90.33
2018-08-24T04:03:52.179Z,90.33
2018-08-24T04:04:52.177Z,90.04
2018-08-24T04:05:52.168Z,90.14
2018-08-24T04:06:52.165Z,89.75
2018-08-24T04:07:52.162Z,89.85
2018-08-24T04:08:52.161Z,90.23
2018-08-24T04:09:52.159Z,90.04
2018-08-24T04:10:52.159Z,90.33
2018-08-24T04:11:52.143Z,89.94
2018-08-24T04:12:52.185Z,90.23
2018-08-24T04:13:52.138Z,89.75
2018-08-24T04:14:52.132Z,89.94
2018-08-24T04:15:52.131Z,89.75
2018-08-24T04:16:52.130Z,89.65
2018-08-24T04:17:52.122Z,90.71
2018-08-24T04:18:52.122Z,90.04
2018-08-24T04:19:52.114Z,89.94
2018-08-24T04:20:52.118Z,90.42
2018-08-24T04:21:52.108Z,90.18
2018-08-24T04:22:52.112Z,90.14
2018-08-24T04:23:52.104Z,90.61
2018-08-24T04:24:52.103Z,89.65
2018-08-24T04:25:52.096Z,89.94
2018-08-24T04:26:52.144Z,90.08
2018-08-24T04:27:52.089Z,89.75
2018-08-24T04:28:52.080Z,90.18
2018-08-24T04:29:52.080Z,90.18
2018-08-24T04:30:52.078Z,89.99
2018-08-24T04:31:52.075Z,90.28
2018-08-24T04:32:52.121Z,89.51
2018-08-24T04:33:52.063Z,89.41
2018-08-24T04:34:52.095Z,88.45
2018-08-24T04:35:52.055Z,88.35
2018-08-24T04:36:52.057Z,88.17
2018-08-24T04:37:52.047Z,87.59
2018-08-24T04:38:52.051Z,87.88
2018-08-24T04:39:52.045Z,86.82
2018-08-24T04:40:52.040Z,87.59
2018-08-24T04:41:52.039Z,86.63
2018-08-24T04:42:52.030Z,86.54
2018-08-24T04:43:52.031Z,86.63
2018-08-24T04:44:52.023Z,87.40
2018-08-24T04:45:52.020Z,87.01
2018-08-24T04:46:52.021Z,86.72
2018-08-24T04:47:52.012Z,85.67
2018-08-24T04:48:52.013Z,86.15
2018-08-24T04:49:52.012Z,85.86
2018-08-24T04:50:52.005Z,86.34
2018-08-24T04:51:52.000Z,85.86
2018-08-24T04:52:52.008Z,87.49
2018-08-24T04:53:51.992Z,85.58
2018-08-24T04:54:51.988Z,85.67
2018-08-24T04:55:51.981Z,86.15
2018-08-24T04:56:51.984Z,85.10
2018-08-24T04:57:51.977Z,85.00
2018-08-24T04:58:51.979Z,85.10
2018-08-24T04:59:51.976Z,84.23
2018-08-24T05:00:51.963Z,83.94
2018-08-24T05:01:51.962Z,84.71
2018-08-24T05:02:51.959Z,84.14
2018-08-24T05:03:51.955Z,84.14
2018-08-24T05:04:51.955Z,82.98
2018-08-24T05:05:52.012Z,84.81
2018-08-24T05:06:51.944Z,84.04
2018-08-24T05:07:51.940Z,84.04
2018-08-24T05:08:51.942Z,84.14
2018-08-24T05:09:51.935Z,83.56
2018-08-24T05:10:51.930Z,83.75
2018-08-24T05:11:51.924Z,81.45
2018-08-24T05:12:51.921Z,83.47
2018-08-24T05:13:51.920Z,82.89
2018-08-24T05:14:51.911Z,83.65
2018-08-24T05:15:51.907Z,83.85
2018-08-24T05:16:51.905Z,84.04
2018-08-24T05:17:51.901Z,82.89
2018-08-24T05:18:51.899Z,83.08
2018-08-24T05:19:51.913Z,84.23
2018-08-24T05:20:51.893Z,83.18
2018-08-24T05:21:51.893Z,84.14
2018-08-24T05:22:51.886Z,83.94
2018-08-24T05:23:51.885Z,84.14
2018-08-24T05:24:51.998Z,84.14
2018-08-24T05:25:51.874Z,83.85
2018-08-24T05:26:51.869Z,83.65
2018-08-24T05:27:51.865Z,84.04
2018-08-24T05:28:51.864Z,84.04
2018-08-24T05:29:51.880Z,83.75
2018-08-24T05:30:51.858Z,83.27
2018-08-24T05:31:51.864Z,83.08
2018-08-24T05:32:51.856Z,82.21
2018-08-24T05:33:51.842Z,82.41
2018-08-24T05:34:51.838Z,81.74
2018-08-24T05:35:51.841Z,82.51
2018-08-24T05:36:51.831Z,81.84
2018-08-24T05:37:51.826Z,81.26
2018-08-24T05:38:51.834Z,81.45
2018-08-24T05:39:51.820Z,81.45
2018-08-24T05:40:51.820Z,81.45
2018-08-24T05:41:51.818Z,81.64
2018-08-24T05:42:51.812Z,82.31
2018-08-24T05:43:51.809Z,82.21
2018-08-24T05:44:51.805Z,81.54
2018-08-24T05:45:51.798Z,82.41
2018-08-24T05:46:51.799Z,81.45
2018-08-24T05:47:51.789Z,82.51
2018-08-24T05:48:51.884Z,82.21
2018-08-24T05:49:51.786Z,82.51
2018-08-24T05:50:51.783Z,81.93
2018-08-24T05:51:51.778Z,81.54
2018-08-24T05:52:51.776Z,81.26
2018-08-24T05:53:51.770Z,81.26
2018-08-24T05:54:51.765Z,81.84
2018-08-24T05:55:51.764Z,80.87
2018-08-24T05:56:51.759Z,81.74
2018-08-24T05:57:51.759Z,80.68
2018-08-24T05:58:51.760Z,81.84
2018-08-24T05:59:51.751Z,81.07
2018-08-24T06:00:51.756Z,80.11
2018-08-24T06:01:51.740Z,79.05
2018-08-24T06:02:51.739Z,80.58
2018-08-24T06:03:51.734Z,79.44
2018-08-24T06:04:51.732Z,78.63
2018-08-24T06:05:51.816Z,79.59
2018-08-24T06:06:51.728Z,80.26
2018-08-24T06:07:51.722Z,79.44
2018-08-24T06:08:51.726Z,78.72
2018-08-24T06:09:51.717Z,79.39
2018-08-24T06:10:51.723Z,79.49
2018-08-24T06:11:51.710Z,79.34
2018-08-24T06:12:51.709Z,79.05
2018-08-24T06:13:51.701Z,79.53
2018-08-24T06:14:51.691Z,78.86
2018-08-24T06:15:51.747Z,79.53
2018-08-24T06:16:51.793Z,79.72
2018-08-24T06:17:51.684Z,80.20
2018-08-24T06:18:51.679Z,78.67
2018-08-24T06:19:51.683Z,78.96
2018-08-24T06:20:51.682Z,80.20
2018-08-24T06:21:51.723Z,79.34
2018-08-24T06:22:51.665Z,80.01
2018-08-24T06:23:51.660Z,78.77
2018-08-24T06:24:51.655Z,79.24
2018-08-24T06:25:51.657Z,79.44
2018-08-24T06:26:51.649Z,78.57
2018-08-24T06:27:51.645Z,79.44
2018-08-24T06:28:51.644Z,79.34
2018-08-24T06:29:51.639Z,78.09
2018-08-24T06:30:51.641Z,79.24
2018-08-24T06:31:51.633Z,78.19
2018-08-24T06:32:51.696Z,79.14
2018-08-24T06:33:51.627Z,78.86
2018-08-24T06:34:51.618Z,78.38
2018-08-24T06:35:51.617Z,79.05
2018-08-24T06:36:51.634Z,78.67
2018-08-24T06:37:51.618Z,78.86
2018-08-24T06:38:51.608Z,79.53
2018-08-24T06:39:51.637Z,78.86
2018-08-24T06:40:51.612Z,79.82
2018-08-24T06:41:51.640Z,79.24
2018-08-24T06:42:51.596Z,78.77
2018-08-24T06:43:51.593Z,79.24
2018-08-24T06:44:51.583Z,79.44
2018-08-24T06:45:51.584Z,80.01
2018-08-24T06:46:51.594Z,80.20
2018-08-24T06:47:51.585Z,80.40
2018-08-24T06:48:51.576Z,80.01
2018-08-24T06:49:51.574Z,79.05
2018-08-24T06:50:51.565Z,80.68
2018-08-24T06:51:51.560Z,80.40
2018-08-24T06:52:51.571Z,79.82
2018-08-24T06:53:51.639Z,81.45
2018-08-24T06:54:51.548Z,81.07
2018-08-24T06:55:51.546Z,80.40
2018-08-24T06:56:51.543Z,81.20
2018-08-24T06:57:51.546Z,81.78
2018-08-24T06:58:51.533Z,82.54
2018-08-24T06:59:51.531Z,81.30
2018-08-24T07:00:51.527Z,82.35
2018-08-24T07:01:51.529Z,82.45
2018-08-24T07:02:51.519Z,82.93
2018-08-24T07:03:51.513Z,82.45
2018-08-24T07:04:51.515Z,83.03
2018-08-24T07:05:51.526Z,82.45
2018-08-24T07:06:51.509Z,82.74
2018-08-24T07:07:51.505Z,83.12
2018-08-24T07:08:51.500Z,83.41
2018-08-24T07:09:51.492Z,83.60
2018-08-24T07:10:51.495Z,83.03
2018-08-24T07:11:51.489Z,83.70
2018-08-24T07:12:51.540Z,83.41
2018-08-24T07:13:51.482Z,84.08
2018-08-24T07:14:51.477Z,83.89
2018-08-24T07:15:51.474Z,83.98
2018-08-24T07:16:51.471Z,84.18
2018-08-24T07:17:51.466Z,84.27
2018-08-24T07:18:51.469Z,84.37
2018-08-24T07:19:51.457Z,84.08
2018-08-24T07:20:51.459Z,84.18
2018-08-24T07:21:51.474Z,83.98
2018-08-24T07:22:51.451Z,84.18
2018-08-24T07:23:51.444Z,84.18
2018-08-24T07:24:51.443Z,84.37
2018-08-24T07:25:51.438Z,84.08
2018-08-24T07:26:51.437Z,83.98
2018-08-24T07:27:51.446Z,83.80
2018-08-24T07:28:51.428Z,84.08
2018-08-24T07:29:51.424Z,83.98
2018-08-24T07:30:51.426Z,83.89
2018-08-24T07:31:51.421Z,84.08
2018-08-24T07:32:51.419Z,84.08
2018-08-24T07:33:51.436Z,84.18
2018-08-24T07:34:51.408Z,84.27
2018-08-24T07:35:51.407Z,83.89
2018-08-24T07:36:51.402Z,83.89
2018-08-24T07:37:51.402Z,84.18
2018-08-24T07:38:51.394Z,84.47
2018-08-24T07:39:51.395Z,84.08
2018-08-24T07:40:51.390Z,84.31
2018-08-24T07:41:51.426Z,83.89
2018-08-24T07:42:51.382Z,84.89
2018-08-24T07:43:51.379Z,85.08
2018-08-24T07:44:51.389Z,84.80
2018-08-24T07:45:51.372Z,85.37
2018-08-24T07:46:51.377Z,85.57
2018-08-24T07:47:51.364Z,85.75
2018-08-24T07:48:51.363Z,85.75
2018-08-24T07:49:51.361Z,86.05
2018-08-24T07:50:51.430Z,86.48
2018-08-24T07:51:51.353Z,86.43
2018-08-24T07:52:51.347Z,86.43
2018-08-24T07:53:51.348Z,86.62
2018-08-24T07:54:51.339Z,86.81
2018-08-24T07:55:51.340Z,86.72
2018-08-24T07:56:51.334Z,86.72
2018-08-24T07:57:51.346Z,87.19
2018-08-24T07:58:51.327Z,87.29
2018-08-24T07:59:51.330Z,87.29
2018-08-24T08:00:51.324Z,87.10
2018-08-24T08:01:51.319Z,86.91
2018-08-24T08:02:51.318Z,86.91
2018-08-24T08:03:51.314Z,86.62
2018-08-24T08:04:51.310Z,86.91
2018-08-24T08:05:51.306Z,86.91
2018-08-24T08:06:51.308Z,87.01
2018-08-24T08:07:51.305Z,86.72
2018-08-24T08:08:51.299Z,87.10
2018-08-24T08:09:51.292Z,87.10
2018-08-24T08:10:51.294Z,87.10
2018-08-24T08:11:51.285Z,87.73
2018-08-24T08:12:51.284Z,87.73
2018-08-24T08:13:51.278Z,87.44
2018-08-24T08:14:51.276Z,88.02
2018-08-24T08:15:51.274Z,87.63
2018-08-24T08:16:51.278Z,87.35
2018-08-24T08:17:51.265Z,88.11
2018-08-24T08:18:51.266Z,88.21
2018-08-24T08:19:51.266Z,87.54
2018-08-24T08:20:51.260Z,88.31
2018-08-24T08:21:51.255Z,87.92
2018-08-24T08:22:51.247Z,88.40
2018-08-24T08:23:51.242Z,87.92
2018-08-24T08:24:51.328Z,89.22
2018-08-24T08:25:51.239Z,88.16
2018-08-24T08:26:51.237Z,88.79
2018-08-24T08:27:51.230Z,88.45
2018-08-24T08:28:51.237Z,88.06
2018-08-24T08:29:51.233Z,88.98
2018-08-24T08:30:51.227Z,88.59
2018-08-24T08:31:51.221Z,88.64
2018-08-24T08:32:51.219Z,88.49
2018-08-24T08:33:51.219Z,88.64
2018-08-24T08:34:51.211Z,88.49
2018-08-24T08:35:51.209Z,88.73
2018-08-24T08:36:51.212Z,88.45
2018-08-24T08:37:51.200Z,88.06
2018-08-24T08:38:51.233Z,88.16
2018-08-24T08:39:51.194Z,87.44
2018-08-24T08:40:51.192Z,87.01
2018-08-24T08:41:51.193Z,86.81
2018-08-24T08:42:51.184Z,86.87
2018-08-24T08:43:51.185Z,86.68
2018-08-24T08:44:51.175Z,87.15
2018-08-24T08:45:51.175Z,87.10
2018-08-24T08:46:51.175Z,87.19
2018-08-24T08:47:51.168Z,87.01
2018-08-24T08:48:51.172Z,86.52
2018-08-24T08:49:51.163Z,86.57
2018-08-24T08:50:51.161Z,86.38
2018-08-24T08:51:51.171Z,86.47
2018-08-24T08:52:51.162Z,86.13
2018-08-24T08:53:51.152Z,85.75
2018-08-24T08:54:51.154Z,85.75
2018-08-24T08:55:51.157Z,85.11
2018-08-24T08:56:51.148Z,84.92
2018-08-24T08:57:51.144Z,83.96
2018-08-24T08:58:51.142Z,83.77
2018-08-24T08:59:51.139Z,83.09
2018-08-24T09:00:51.137Z,83.09
2018-08-24T09:01:51.138Z,83.42
2018-08-24T09:02:51.143Z,83.04
2018-08-24T09:03:51.135Z,83.04
2018-08-24T09:04:51.134Z,83.39
2018-08-24T09:05:51.133Z,83.62
2018-08-24T09:06:51.137Z,83.52
2018-08-24T09:07:51.130Z,81.84
2018-08-24T09:08:51.125Z,80.50
2018-08-24T09:09:51.124Z,80.50
2018-08-24T09:10:51.122Z,80.40
2018-08-24T09:11:51.122Z,80.50
2018-08-24T09:12:51.179Z,81.07
2018-08-24T09:13:51.120Z,80.92
2018-08-24T09:14:51.121Z,80.54
2018-08-24T09:15:51.124Z,80.06
2018-08-24T09:16:51.117Z,79.67
2018-08-24T09:17:51.115Z,78.46
2018-08-24T09:18:51.115Z,80.77
2018-08-24T09:19:51.196Z,80.23
2018-08-24T09:20:51.108Z,77.92
2018-08-24T09:21:51.116Z,76.71
2018-08-24T09:22:51.111Z,75.80
2018-08-24T09:23:51.119Z,76.48
2018-08-24T09:24:51.121Z,76.76
2018-08-24T09:25:51.164Z,77.92
2018-08-24T09:26:51.124Z,77.06
2018-08-24T09:27:51.115Z,77.15
2018-08-24T09:28:51.108Z,76.03
2018-08-24T09:29:51.114Z,75.61
2018-08-24T09:30:51.114Z,76.03
2018-08-24T09:31:51.113Z,74.84
2018-08-24T09:32:51.125Z,75.61
2018-08-24T09:33:51.114Z,76.09
2018-08-24T09:34:51.110Z,76.67
2018-08-24T09:35:51.108Z,75.99
2018-08-24T09:36:51.110Z,75.09
2018-08-24T09:37:51.158Z,74.71
2018-08-24T09:38:51.107Z,74.48
2018-08-24T09:39:51.110Z,74.90
2018-08-24T09:40:51.112Z,74.76
2018-08-24T09:41:51.116Z,75.63
2018-08-24T09:42:51.109Z,76.31
2018-08-24T09:43:51.106Z,76.40
2018-08-24T09:44:51.109Z,76.21
2018-08-24T09:45:51.111Z,75.05
2018-08-24T09:46:51.105Z,76.11
2018-08-24T09:47:51.112Z,74.96
2018-08-24T09:48:51.110Z,73.71
2018-08-24T09:49:51.101Z,74.41
2018-08-24T09:50:51.100Z,73.01
2018-08-24T09:51:51.151Z,71.56
2018-08-24T09:52:51.099Z,70.92
2018-08-24T09:53:51.104Z,69.09
2018-08-24T09:54:51.104Z,67.68
2018-08-24T09:55:51.105Z,67.20
2018-08-24T09:56:51.158Z,64.72
2018-08-24T09:57:51.104Z,64.72
2018-08-24T09:58:51.108Z,62.25
2018-08-24T09:59:51.104Z,61.67
2018-08-24T10:00:51.106Z,60.99
2018-08-24T10:01:51.113Z,60.41
2018-08-24T10:02:51.175Z,59.58
2018-08-24T10:03:51.113Z,61.89
2018-08-24T10:04:51.118Z,61.41
2018-08-24T10:05:51.119Z,60.38
2018-08-24T10:06:51.204Z,59.44
2018-08-24T10:07:51.118Z,58.60
2018-08-24T10:08:51.123Z,57.86
2018-08-24T10:09:51.124Z,56.30
2018-08-24T10:10:51.131Z,54.27
2018-08-24T10:11:51.133Z,55.73
2018-08-24T10:12:51.139Z,55.07
2018-08-24T10:13:51.141Z,53.63
2018-08-24T10:14:51.147Z,53.72
2018-08-24T10:15:51.150Z,53.63
2018-08-24T10:16:51.156Z,53.63
2018-08-24T10:17:51.159Z,52.08
2018-08-24T10:18:51.165Z,52.46
2018-08-24T10:19:51.171Z,52.85
2018-08-24T10:20:51.169Z,52.95
2018-08-24T10:21:51.176Z,51.10
2018-08-24T10:22:51.181Z,50.50
2018-08-24T10:23:51.183Z,50.96
2018-08-24T10:24:51.184Z,51.61
2018-08-24T10:25:51.192Z,52.58
2018-08-24T10:26:51.200Z,52.84
2018-08-24T10:27:51.203Z,53.13
2018-08-24T10:28:51.210Z,53.23
2018-08-24T10:29:51.276Z,54.29
2018-08-24T10:30:51.211Z,55.26
2018-08-24T10:31:51.215Z,54.00
2018-08-24T10:32:51.217Z,53.42
2018-08-24T10:33:51.230Z,52.94
2018-08-24T10:34:51.233Z,52.36
2018-08-24T10:35:51.228Z,52.62
2018-08-24T10:36:51.233Z,54.17
2018-08-24T10:37:51.235Z,54.68
2018-08-24T10:38:51.257Z,54.97
2018-08-24T10:39:51.234Z,54.10
2018-08-24T10:40:51.356Z,54.13
2018-08-24T10:41:51.246Z,54.03
2018-08-24T10:42:51.248Z,53.47
2018-08-24T10:43:51.248Z,52.12
2018-08-24T10:44:51.259Z,51.54
2018-08-24T10:45:51.253Z,50.76
2018-08-24T10:46:51.260Z,51.64
2018-08-24T10:47:51.263Z,50.76
2018-08-24T10:48:51.264Z,50.57
2018-08-24T10:49:51.271Z,49.90
2018-08-24T10:50:51.281Z,49.73
2018-08-24T10:51:51.276Z,48.37
2018-08-24T10:52:51.286Z,48.59
2018-08-24T10:53:51.285Z,47.62
2018-08-24T10:54:51.316Z,47.14
2018-08-24T10:55:51.293Z,47.31
2018-08-24T10:56:51.295Z,47.41
2018-08-24T10:57:51.296Z,47.58
2018-08-24T10:58:51.303Z,45.76
2018-08-24T10:59:51.334Z,46.05
2018-08-24T11:00:51.311Z,44.98
2018-08-24T11:01:51.316Z,44.81
2018-08-24T11:02:51.312Z,44.13
2018-08-24T11:03:51.332Z,44.26
2018-08-24T11:04:51.326Z,44.16
2018-08-24T11:05:51.324Z,43.48
2018-08-24T11:06:51.333Z,43.48
2018-08-24T11:07:51.453Z,41.93
2018-08-24T11:08:51.340Z,41.74
2018-08-24T11:09:51.356Z,41.83
2018-08-24T11:10:51.351Z,41.16
2018-08-24T11:11:51.354Z,41.37
2018-08-24T11:12:51.357Z,40.38
2018-08-24T11:13:51.363Z,40.09
2018-08-24T11:14:51.365Z,40.58
2018-08-24T11:15:51.373Z,41.45
2018-08-24T11:16:51.446Z,41.83
2018-08-24T11:17:51.389Z,41.93
2018-08-24T11:18:51.390Z,41.86
2018-08-24T11:19:51.395Z,42.34
2018-08-24T11:20:51.402Z,40.31
2018-08-24T11:21:51.808Z,39.82
2018-08-24T11:22:51.441Z,40.21
2018-08-24T11:23:51.417Z,39.62
2018-08-24T11:24:51.420Z,39.70
2018-08-24T11:25:51.423Z,40.89
2018-08-24T11:26:51.499Z,40.40
2018-08-24T11:27:51.435Z,39.16
2018-08-24T11:28:51.442Z,39.06
2018-08-24T11:29:51.445Z,39.16
2018-08-24T11:30:51.455Z,38.09
2018-08-24T11:31:51.463Z,38.60
2018-08-24T11:32:51.467Z,39.18
2018-08-24T11:33:51.527Z,38.21
2018-08-24T11:34:51.475Z,38.42
2018-08-24T11:35:51.516Z,38.04
2018-08-24T11:36:51.487Z,38.52
2018-08-24T11:37:51.493Z,37.35
2018-08-24T11:38:51.503Z,36.77
2018-08-24T11:39:51.508Z,35.61
2018-08-24T11:40:51.518Z,35.69
2018-08-24T11:41:51.571Z,36.56
2018-08-24T11:42:51.527Z,37.53
2018-08-24T11:43:51.535Z,38.02
2018-08-24T11:44:51.547Z,36.74
2018-08-24T11:45:51.537Z,36.93
2018-08-24T11:46:51.539Z,37.23
2018-08-24T11:47:51.593Z,36.85
2018-08-24T11:48:51.558Z,36.16
2018-08-24T11:49:51.561Z,36.62
2018-08-24T11:50:51.565Z,36.74
2018-08-24T11:51:51.569Z,37.61
2018-08-24T11:52:51.578Z,38.02
2018-08-24T11:53:51.583Z,36.56
2018-08-24T11:54:51.586Z,36.00
2018-08-24T11:55:51.590Z,36.10
2018-08-24T11:56:51.600Z,35.71
2018-08-24T11:57:51.611Z,35.69
2018-08-24T11:58:51.615Z,35.78
2018-08-24T11:59:51.636Z,36.74
2018-08-24T12:00:51.624Z,36.85
2018-08-24T12:01:51.622Z,36.46
2018-08-24T12:02:51.631Z,36.06
2018-08-24T12:03:51.635Z,35.96
2018-08-24T12:04:51.642Z,37.15
2018-08-24T12:05:51.641Z,37.05
2018-08-24T12:06:51.652Z,36.48
2018-08-24T12:07:51.706Z,35.01
2018-08-24T12:08:51.661Z,34.72
2018-08-24T12:09:51.665Z,34.81
2018-08-24T12:10:51.672Z,35.01
2018-08-24T12:11:51.679Z,34.54
2018-08-24T12:12:51.683Z,34.53
2018-08-24T12:13:51.717Z,34.62
2018-08-24T12:14:51.693Z,35.11
2018-08-24T12:15:51.701Z,35.40
2018-08-24T12:16:51.706Z,35.57
2018-08-24T12:17:51.712Z,35.57
2018-08-24T12:18:51.712Z,35.98
2018-08-24T12:19:51.717Z,35.88
2018-08-24T12:20:51.733Z,35.98
2018-08-24T12:21:51.728Z,35.88
2018-08-24T12:22:51.736Z,36.10
2018-08-24T12:23:51.743Z,35.22
2018-08-24T12:24:51.750Z,35.61
2018-08-24T12:25:51.751Z,35.41
2018-08-24T12:26:51.751Z,35.41
2018-08-24T12:27:51.768Z,35.43
2018-08-24T12:28:51.761Z,34.64
2018-08-24T12:29:51.767Z,34.93
2018-08-24T12:30:51.810Z,35.59
2018-08-24T12:31:51.779Z,35.77
2018-08-24T12:32:51.786Z,36.72
2018-08-24T12:33:51.790Z,37.28
2018-08-24T12:34:51.877Z,37.77
2018-08-24T12:35:51.800Z,38.15
2018-08-24T12:36:51.804Z,38.35
2018-08-24T12:37:51.871Z,37.98
2018-08-24T12:38:51.812Z,37.67
2018-08-24T12:39:51.813Z,37.87
2018-08-24T12:40:51.823Z,37.67
2018-08-24T12:41:51.830Z,37.46
2018-08-24T12:42:51.839Z,38.41
2018-08-24T12:43:51.836Z,39.11
2018-08-24T12:44:51.840Z,39.20
2018-08-24T12:45:51.842Z,38.91
2018-08-24T12:46:51.843Z,39.22
2018-08-24T12:47:51.847Z,37.48
2018-08-24T12:48:51.854Z,36.68
2018-08-24T12:49:51.859Z,36.41
2018-08-24T12:50:51.861Z,35.83
2018-08-24T12:51:51.866Z,35.64
2018-08-24T12:52:51.886Z,35.25